createdAt,value
2019-05-05T00:00:05.094Z,929.8
2019-05-05T00:01:06.349Z,929.9
2019-05-05T00:02:07.117Z,929.9
2019-05-05T00:03:07.873Z,929.8
2019-05-05T00:04:08.651Z,929.7
2019-05-05T00:06:15.099Z,929.9
2019-05-05T00:07:16.097Z,929.9
2019-05-05T00:08:16.869Z,930
2019-05-05T00:09:17.652Z,930
2019-05-05T00:10:18.407Z,929.9
2019-05-05T00:11:19.171Z,930
2019-05-05T00:12:19.935Z,930
2019-05-05T00:13:20.705Z,930.1
2019-05-05T00:14:21.494Z,930.1
2019-05-05T00:16:26.939Z,930.1
2019-05-05T00:17:27.707Z,930
2019-05-05T00:18:28.475Z,930
2019-05-05T00:19:36.419Z,929.6
2019-05-05T00:20:37.175Z,930
2019-05-05T00:21:37.929Z,930
2019-05-05T00:22:38.685Z,929.1
2019-05-05T00:23:39.447Z,930
2019-05-05T00:24:40.231Z,929.8
2019-05-05T00:26:47.207Z,929.9
2019-05-05T00:27:47.981Z,930
2019-05-05T00:28:48.753Z,929.8
2019-05-05T00:29:49.525Z,929.9
2019-05-05T00:30:50.294Z,929.8
2019-05-05T00:31:51.053Z,929.9
2019-05-05T00:32:51.819Z,929.9
2019-05-05T00:33:54.849Z,930
2019-05-05T00:34:56.251Z,930
2019-05-05T00:36:58.545Z,929.9
2019-05-05T00:37:59.321Z,929.9
2019-05-05T00:39:00.085Z,929.8
2019-05-05T00:40:00.863Z,929.9
2019-05-05T00:41:01.635Z,929.8
2019-05-05T00:42:04.583Z,929.9
2019-05-05T00:43:06.495Z,929.9
2019-05-05T00:44:07.252Z,930
2019-05-05T00:45:08.034Z,930
2019-05-05T00:47:14.447Z,928.3
2019-05-05T00:48:16.410Z,929.9
2019-05-05T00:49:17.168Z,930
2019-05-05T00:50:17.974Z,929.8
2019-05-05T00:51:18.723Z,930
2019-05-05T00:52:19.496Z,930
2019-05-05T00:53:20.255Z,930
2019-05-05T00:54:21.025Z,930.1
2019-05-05T00:55:21.815Z,929.9
2019-05-05T00:57:26.941Z,927.8
2019-05-05T00:58:27.704Z,930.1
2019-05-05T00:59:28.476Z,930
2019-05-05T01:00:29.261Z,930.1
2019-05-05T01:01:30.021Z,930
2019-05-05T01:02:30.799Z,930.2
2019-05-05T01:03:31.543Z,930.2
2019-05-05T01:04:32.316Z,930.1
2019-05-05T01:05:35.211Z,930.1
2019-05-05T01:07:39.502Z,930.1
2019-05-05T01:08:40.270Z,930.1
2019-05-05T01:09:41.018Z,930.1
2019-05-05T01:10:41.806Z,930.2
2019-05-05T01:11:44.753Z,929.1
2019-05-05T01:12:46.112Z,930.1
2019-05-05T01:13:46.880Z,930.2
2019-05-05T01:14:47.642Z,930
2019-05-05T01:15:48.424Z,930.2
2019-05-05T01:17:52.725Z,930.1
2019-05-05T01:18:55.806Z,930.2
2019-05-05T01:20:07.782Z,930.2
2019-05-05T01:21:08.553Z,930
2019-05-05T01:22:09.318Z,930.1
2019-05-05T01:23:10.080Z,930.1
2019-05-05T01:24:10.846Z,930
2019-05-05T01:25:11.598Z,930.2
2019-05-05T01:26:14.740Z,927.8
2019-05-05T01:28:19.026Z,930.2
2019-05-05T01:29:19.792Z,930.3
2019-05-05T01:30:20.557Z,930.2
2019-05-05T01:31:21.331Z,930.2
2019-05-05T01:32:22.096Z,930.2
2019-05-05T01:33:24.873Z,930.1
2019-05-05T01:34:25.740Z,930.1
2019-05-05T01:35:26.510Z,930.2
2019-05-05T01:36:27.286Z,930.1
2019-05-05T01:38:31.592Z,930.3
2019-05-05T01:39:34.382Z,930.2
2019-05-05T01:40:36.487Z,930.2
2019-05-05T01:41:37.010Z,930.3
2019-05-05T01:42:37.771Z,930.1
2019-05-05T01:43:38.523Z,930.3
2019-05-05T01:44:39.284Z,930.3
2019-05-05T01:45:40.040Z,930.1
2019-05-05T01:46:40.843Z,930.2
2019-05-05T01:48:46.919Z,930.1
2019-05-05T01:49:47.685Z,930.3
2019-05-05T01:50:48.448Z,930.2
2019-05-05T01:51:48.951Z,930.2
2019-05-05T01:52:49.719Z,930.1
2019-05-05T01:53:50.469Z,930.2
2019-05-05T01:54:51.242Z,930.1
2019-05-05T01:55:54.036Z,930.1
2019-05-05T01:56:56.580Z,930.1
2019-05-05T01:58:58.878Z,930
2019-05-05T01:59:59.640Z,930.1
2019-05-05T02:01:00.404Z,930.1
2019-05-05T02:02:01.184Z,930
2019-05-05T02:03:01.941Z,930.1
2019-05-05T02:04:02.704Z,928.8
2019-05-05T02:05:05.606Z,930.2
2019-05-05T02:06:06.421Z,930.1
2019-05-05T02:07:07.206Z,930
2019-05-05T02:09:11.684Z,930.2
2019-05-05T02:10:12.456Z,930.2
2019-05-05T02:11:12.940Z,930.2
2019-05-05T02:12:16.357Z,930.1
2019-05-05T02:13:17.249Z,930.1
2019-05-05T02:14:18.012Z,929.9
2019-05-05T02:15:18.776Z,930.1
2019-05-05T02:16:19.530Z,930.2
2019-05-05T02:17:20.320Z,930.2
2019-05-05T02:19:27.226Z,930.1
2019-05-05T02:20:34.384Z,930.1
2019-05-05T02:21:36.434Z,930.1
2019-05-05T02:22:37.217Z,929.9
2019-05-05T02:23:37.974Z,930.2
2019-05-05T02:24:38.738Z,930.1
2019-05-05T02:25:39.498Z,930
2019-05-05T02:26:40.254Z,930
2019-05-05T02:27:41.049Z,930.1
2019-05-05T02:29:45.452Z,930
2019-05-05T02:30:47.652Z,930.1
2019-05-05T02:31:48.420Z,930
2019-05-05T02:32:49.203Z,930.1
2019-05-05T02:33:49.969Z,930.1
2019-05-05T02:34:50.724Z,930.1
2019-05-05T02:35:51.491Z,930
2019-05-05T02:36:52.252Z,930
2019-05-05T02:37:56.353Z,929.9
2019-05-05T02:40:08.645Z,930.1
2019-05-05T02:41:09.413Z,929.9
2019-05-05T02:42:10.172Z,930.2
2019-05-05T02:43:10.937Z,930
2019-05-05T02:44:11.700Z,930.2
2019-05-05T02:45:15.782Z,930.2
2019-05-05T02:46:16.518Z,930.2
2019-05-05T02:47:17.293Z,930.2
2019-05-05T02:48:18.085Z,930.2
2019-05-05T02:50:25.934Z,930.1
2019-05-05T02:51:27.101Z,930.3
2019-05-05T02:52:27.860Z,930.2
2019-05-05T02:53:28.640Z,930.2
2019-05-05T02:54:29.402Z,930.2
2019-05-05T02:55:35.573Z,930.3
2019-05-05T02:56:36.342Z,930.3
2019-05-05T02:57:37.098Z,930.3
2019-05-05T02:58:37.871Z,930.1
2019-05-05T03:00:44.132Z,930.1
2019-05-05T03:01:45.724Z,930.3
2019-05-05T03:02:46.493Z,930.2
2019-05-05T03:03:47.272Z,930.4
2019-05-05T03:04:48.065Z,930.3
2019-05-05T03:05:48.801Z,930.3
2019-05-05T03:06:49.552Z,930.3
2019-05-05T03:07:50.324Z,930.2
2019-05-05T03:08:51.102Z,930.3
2019-05-05T03:10:56.428Z,930.4
2019-05-05T03:11:57.191Z,930.4
2019-05-05T03:12:57.958Z,930.4
2019-05-05T03:13:58.737Z,930.4
2019-05-05T03:14:59.510Z,930.3
2019-05-05T03:16:00.273Z,930.4
2019-05-05T03:17:01.046Z,930.2
2019-05-05T03:18:01.800Z,930.3
2019-05-05T03:19:04.628Z,930.2
2019-05-05T03:21:08.925Z,929.6
2019-05-05T03:22:09.683Z,930.4
2019-05-05T03:23:10.437Z,930.5
2019-05-05T03:24:11.232Z,930.4
2019-05-05T03:25:14.012Z,930.5
2019-05-05T03:26:15.244Z,930.4
2019-05-05T03:27:15.998Z,930.4
2019-05-05T03:28:16.768Z,930.2
2019-05-05T03:29:17.550Z,930.4
2019-05-05T03:31:21.859Z,930.4
2019-05-05T03:32:26.613Z,930.4
2019-05-05T03:33:27.380Z,930.4
2019-05-05T03:34:28.156Z,930.4
2019-05-05T03:35:28.683Z,930.4
2019-05-05T03:36:29.446Z,930.5
2019-05-05T03:37:30.206Z,930.5
2019-05-05T03:38:30.960Z,930.3
2019-05-05T03:39:33.805Z,930.4
2019-05-05T03:41:38.294Z,930.5
2019-05-05T03:42:39.054Z,930.6
2019-05-05T03:43:39.808Z,930.5
2019-05-05T03:44:40.608Z,930.5
2019-05-05T03:45:41.382Z,930.4
2019-05-05T03:46:44.256Z,930.4
2019-05-05T03:47:45.243Z,930.4
2019-05-05T03:48:46.002Z,930.5
2019-05-05T03:49:46.790Z,930.5
2019-05-05T03:51:50.812Z,930.3
2019-05-05T03:52:51.581Z,930.5
2019-05-05T03:53:54.368Z,930.5
2019-05-05T03:54:55.326Z,930.5
2019-05-05T03:55:56.082Z,930.5
2019-05-05T03:56:56.848Z,930.5
2019-05-05T03:57:57.613Z,930.4
2019-05-05T03:58:59.457Z,930.4
2019-05-05T04:00:00.257Z,930.5
2019-05-05T04:02:06.137Z,930.4
2019-05-05T04:03:06.891Z,930.5
2019-05-05T04:04:07.655Z,930.4
2019-05-05T04:05:08.453Z,930.4
2019-05-05T04:06:09.216Z,930.3
2019-05-05T04:07:09.991Z,930.4
2019-05-05T04:08:10.751Z,930.4
2019-05-05T04:09:13.585Z,930.3
2019-05-05T04:10:15.192Z,930.4
2019-05-05T04:12:17.493Z,930.3
2019-05-05T04:13:18.263Z,930.3
2019-05-05T04:14:19.641Z,930.3
2019-05-05T04:15:20.431Z,930.5
2019-05-05T04:16:21.199Z,930.5
2019-05-05T04:17:21.973Z,930.5
2019-05-05T04:18:24.808Z,930.6
2019-05-05T04:19:25.566Z,930.6
2019-05-05T04:20:26.346Z,930.6
2019-05-05T04:22:38.187Z,930.7
2019-05-05T04:23:38.967Z,930.7
2019-05-05T04:24:39.728Z,930.8
2019-05-05T04:25:40.507Z,930.7
2019-05-05T04:26:41.268Z,930.8
2019-05-05T04:27:50.799Z,930.8
2019-05-05T04:28:51.556Z,930.8
2019-05-05T04:29:54.783Z,930.8
2019-05-05T04:30:55.565Z,930.9
2019-05-05T04:32:59.859Z,930.8
2019-05-05T04:34:00.624Z,930.8
2019-05-05T04:35:03.772Z,930.8
2019-05-05T04:36:04.995Z,930.8
2019-05-05T04:37:05.762Z,930.8
2019-05-05T04:38:06.527Z,930.9
2019-05-05T04:39:07.290Z,930.9
2019-05-05T04:40:08.050Z,930.9
2019-05-05T04:41:08.829Z,930.9
2019-05-05T04:43:16.001Z,930.9
2019-05-05T04:44:19.040Z,930.9
2019-05-05T04:45:19.809Z,931
2019-05-05T04:46:20.595Z,931
2019-05-05T04:47:21.361Z,930.8
2019-05-05T04:48:24.468Z,930.9
2019-05-05T04:49:25.233Z,931
2019-05-05T04:50:25.990Z,931
2019-05-05T04:51:26.767Z,931
2019-05-05T04:53:29.092Z,931
2019-05-05T04:54:29.865Z,931
2019-05-05T04:55:30.628Z,930.9
2019-05-05T04:56:31.411Z,931
2019-05-05T04:57:32.159Z,931
2019-05-05T04:58:34.693Z,928.6
2019-05-05T04:59:35.451Z,931
2019-05-05T05:00:36.221Z,930.8
2019-05-05T05:01:36.999Z,931
2019-05-05T05:03:41.027Z,931
2019-05-05T05:04:41.820Z,930.9
2019-05-05T05:05:44.579Z,930.9
2019-05-05T05:06:45.357Z,931
2019-05-05T05:07:46.121Z,930.9
2019-05-05T05:08:46.887Z,930.9
2019-05-05T05:09:47.653Z,930.8
2019-05-05T05:10:48.408Z,930.9
2019-05-05T05:11:49.201Z,930.7
2019-05-05T05:13:55.867Z,930.8
2019-05-05T05:14:56.631Z,931
2019-05-05T05:15:59.885Z,930.7
2019-05-05T05:17:00.677Z,930.9
2019-05-05T05:18:01.177Z,931
2019-05-05T05:19:01.944Z,930.8
2019-05-05T05:20:04.767Z,931
2019-05-05T05:21:05.542Z,930.8
2019-05-05T05:22:06.335Z,931
2019-05-05T05:24:08.627Z,930.9
2019-05-05T05:25:09.399Z,931.1
2019-05-05T05:26:10.166Z,931.1
2019-05-05T05:27:10.953Z,931.1
2019-05-05T05:28:11.711Z,931.2
2019-05-05T05:29:12.211Z,931.2
2019-05-05T05:30:14.889Z,931.2
2019-05-05T05:31:15.659Z,928.9
2019-05-05T05:32:16.659Z,931.2
2019-05-05T05:34:20.959Z,931.2
2019-05-05T05:35:21.464Z,931.1
2019-05-05T05:36:22.231Z,931
2019-05-05T05:37:25.077Z,931.2
2019-05-05T05:38:25.852Z,931.2
2019-05-05T05:39:26.611Z,931.2
2019-05-05T05:40:27.378Z,931.1
2019-05-05T05:41:27.865Z,931.2
2019-05-05T05:42:28.378Z,931.2
2019-05-05T05:44:34.993Z,930.4
2019-05-05T05:45:35.763Z,930.8
2019-05-05T05:46:36.533Z,931.2
2019-05-05T05:47:37.327Z,931.4
2019-05-05T05:48:38.086Z,931.3
2019-05-05T05:49:38.849Z,931.3
2019-05-05T05:50:39.599Z,931.4
2019-05-05T05:51:40.369Z,931.3
2019-05-05T05:52:41.165Z,931.4
2019-05-05T05:54:47.682Z,931.5
2019-05-05T05:55:48.445Z,931.4
2019-05-05T05:56:49.195Z,929.4
2019-05-05T05:57:49.988Z,931.6
2019-05-05T05:58:50.755Z,931.2
2019-05-05T05:59:51.519Z,931.6
2019-05-05T06:00:54.352Z,931.4
2019-05-05T06:02:16.089Z,931.6
2019-05-05T06:03:16.873Z,931.4
2019-05-05T06:05:21.163Z,931.6
2019-05-05T06:06:24.214Z,931.4
2019-05-05T06:07:25.755Z,931.5
2019-05-05T06:08:26.537Z,931.4
2019-05-05T06:09:27.301Z,931.6
2019-05-05T06:10:28.651Z,931.6
2019-05-05T06:11:29.415Z,931.4
2019-05-05T06:12:30.187Z,931.6
2019-05-05T06:13:30.967Z,931.6
2019-05-05T06:15:36.073Z,931.7
2019-05-05T06:16:36.833Z,931.5
2019-05-05T06:17:37.591Z,931.7
2019-05-05T06:18:38.377Z,931.6
2019-05-05T06:19:39.137Z,931.7
2019-05-05T06:20:39.904Z,931.8
2019-05-05T06:21:40.669Z,931.8
2019-05-05T06:22:41.430Z,931.8
2019-05-05T06:23:44.501Z,931.8
2019-05-05T06:25:48.794Z,931.9
2019-05-05T06:26:49.547Z,931.9
2019-05-05T06:27:50.328Z,931.9
2019-05-05T06:28:51.124Z,931.8
2019-05-05T06:29:54.096Z,931.9
2019-05-05T06:30:55.808Z,931.9
2019-05-05T06:31:56.606Z,929.6
2019-05-05T06:32:57.369Z,931.9
2019-05-05T06:33:58.173Z,932
2019-05-05T06:36:05.016Z,931.8
2019-05-05T06:37:05.779Z,932
2019-05-05T06:38:06.537Z,932
2019-05-05T06:39:07.327Z,932
2019-05-05T06:40:08.089Z,932
2019-05-05T06:41:08.844Z,932.1
2019-05-05T06:42:09.615Z,932.1
2019-05-05T06:43:10.375Z,931.9
2019-05-05T06:44:11.169Z,932
2019-05-05T06:46:16.253Z,930.8
2019-05-05T06:47:17.019Z,932.2
2019-05-05T06:48:17.780Z,932.1
2019-05-05T06:49:18.597Z,932
2019-05-05T06:50:19.354Z,932.1
2019-05-05T06:51:20.116Z,932.1
2019-05-05T06:52:20.887Z,932.2
2019-05-05T06:53:21.642Z,932.2
2019-05-05T06:54:24.527Z,932.2
2019-05-05T06:56:28.821Z,932
2019-05-05T06:57:29.575Z,932.2
2019-05-05T06:58:30.343Z,932.1
2019-05-05T06:59:31.128Z,932.1
2019-05-05T07:00:31.895Z,932
2019-05-05T07:01:34.829Z,932.2
2019-05-05T07:02:35.597Z,932.1
2019-05-05T07:03:36.359Z,932.2
2019-05-05T07:04:37.144Z,932
2019-05-05T07:06:57.886Z,932.3
2019-05-05T07:07:58.668Z,932.3
2019-05-05T07:08:59.152Z,932.3
2019-05-05T07:09:59.663Z,932.3
2019-05-05T07:11:00.548Z,932.3
2019-05-05T07:12:01.016Z,932.3
2019-05-05T07:13:01.780Z,932.1
2019-05-05T07:14:04.766Z,931.5
2019-05-05T07:15:05.566Z,932.3
2019-05-05T07:17:09.604Z,932.3
2019-05-05T07:18:10.365Z,932.3
2019-05-05T07:19:11.133Z,932.2
2019-05-05T07:20:14.022Z,930
2019-05-05T07:21:15.466Z,932.3
2019-05-05T07:22:18.804Z,932.4
2019-05-05T07:23:19.566Z,932.3
2019-05-05T07:24:20.336Z,932.4
2019-05-05T07:25:21.124Z,932.4
2019-05-05T07:27:26.604Z,932.4
2019-05-05T07:28:27.369Z,932.3
2019-05-05T07:29:28.142Z,932.4
2019-05-05T07:30:28.934Z,932.4
2019-05-05T07:31:29.694Z,932.4
2019-05-05T07:32:30.454Z,932.4
2019-05-05T07:33:31.212Z,932.4
2019-05-05T07:34:33.862Z,932.3
2019-05-05T07:35:35.662Z,932.5
2019-05-05T07:37:40.462Z,930.1
2019-05-05T07:38:41.218Z,932.5
2019-05-05T07:39:41.978Z,932.5
2019-05-05T07:40:44.971Z,932.2
2019-05-05T07:41:45.951Z,932.5
2019-05-05T07:42:46.709Z,932.4
2019-05-05T07:43:47.464Z,932.5
2019-05-05T07:44:48.230Z,932.5
2019-05-05T07:45:48.746Z,932.5
2019-05-05T07:47:56.256Z,932.5
2019-05-05T07:48:57.024Z,932.5
2019-05-05T07:49:57.802Z,932.5
2019-05-05T07:51:41.017Z,932.4
2019-05-05T07:52:44.012Z,932.5
2019-05-05T07:53:45.480Z,932.5
2019-05-05T07:54:46.250Z,932.5
2019-05-05T07:55:47.010Z,932.3
2019-05-05T07:56:47.799Z,931.4
2019-05-05T07:58:50.108Z,932.4
2019-05-05T07:59:50.876Z,932.5
2019-05-05T08:00:51.664Z,932.5
2019-05-05T08:01:54.957Z,932.5
2019-05-05T08:02:55.690Z,932.5
2019-05-05T08:03:56.449Z,932.5
2019-05-05T08:04:57.218Z,932.5
2019-05-05T08:05:57.970Z,932.5
2019-05-05T08:06:58.766Z,932.4
2019-05-05T08:09:06.525Z,932.5
2019-05-05T08:10:07.291Z,932.5
2019-05-05T08:11:08.062Z,932.6
2019-05-05T08:12:08.855Z,932.5
2019-05-05T08:13:09.616Z,932.6
2019-05-05T08:14:10.372Z,932.4
2019-05-05T08:15:11.137Z,932.6
2019-05-05T08:16:13.926Z,932.6
2019-05-05T08:17:15.714Z,932.5
2019-05-05T08:19:18.026Z,932.5
2019-05-05T08:20:20.558Z,932.6
2019-05-05T08:21:21.336Z,932.7
2019-05-05T08:22:24.362Z,932.5
2019-05-05T08:23:36.023Z,932.6
2019-05-05T08:24:36.780Z,932.7
2019-05-05T08:25:41.381Z,932.7
2019-05-05T08:26:44.711Z,932.6
2019-05-05T08:27:45.845Z,932.7
2019-05-05T08:29:50.150Z,932.7
2019-05-05T08:30:50.914Z,932.7
2019-05-05T08:31:53.940Z,932.7
2019-05-05T08:32:55.616Z,932.7
2019-05-05T08:33:56.382Z,932.5
2019-05-05T08:35:04.471Z,932.5
2019-05-05T08:36:05.811Z,932.7
2019-05-05T08:37:06.607Z,932.7
2019-05-05T08:38:07.380Z,932.5
2019-05-05T08:40:11.675Z,932.5
2019-05-05T08:41:14.774Z,932.6
2019-05-05T08:42:15.625Z,932.6
2019-05-05T08:43:16.152Z,932.7
2019-05-05T08:44:19.248Z,932.7
2019-05-05T08:45:19.998Z,932.7
2019-05-05T08:46:20.756Z,932.7
2019-05-05T08:47:21.530Z,932.7
2019-05-05T08:48:24.436Z,932.7
2019-05-05T08:50:28.881Z,932.8
2019-05-05T08:51:29.643Z,932.7
2019-05-05T08:52:30.416Z,930.5
2019-05-05T08:53:48.750Z,932.7
2019-05-05T08:54:49.517Z,932.8
2019-05-05T08:55:50.282Z,932.7
2019-05-05T08:56:51.042Z,932.7
2019-05-05T08:57:54.154Z,932.7
2019-05-05T08:58:55.620Z,932.5
2019-05-05T09:00:59.938Z,932.5
2019-05-05T09:02:00.708Z,932.7
2019-05-05T09:03:04.021Z,932.7
2019-05-05T09:04:05.248Z,932.8
2019-05-05T09:05:06.018Z,932.6
2019-05-05T09:06:06.771Z,932.7
2019-05-05T09:07:07.538Z,932.8
2019-05-05T09:08:08.051Z,932.7
2019-05-05T09:09:09.822Z,932.6
2019-05-05T09:11:16.166Z,932.8
2019-05-05T09:12:16.927Z,932.8
2019-05-05T09:13:17.686Z,932.8
2019-05-05T09:14:18.500Z,932.7
2019-05-05T09:15:19.270Z,932.8
2019-05-05T09:16:19.769Z,932.7
2019-05-05T09:17:20.536Z,932.7
2019-05-05T09:18:21.309Z,932.8
2019-05-05T09:19:24.446Z,931.2
2019-05-05T09:21:26.757Z,932.8
2019-05-05T09:22:27.516Z,932.5
2019-05-05T09:23:28.290Z,932.8
2019-05-05T09:24:29.082Z,932.7
2019-05-05T09:25:29.846Z,932.7
2019-05-05T09:26:30.627Z,932.6
2019-05-05T09:27:33.279Z,930.6
2019-05-05T09:28:35.229Z,932.7
2019-05-05T09:29:36.021Z,932.7
2019-05-05T09:31:40.317Z,932.7
2019-05-05T09:32:44.106Z,932.8
2019-05-05T09:33:45.370Z,932.8
2019-05-05T09:34:46.171Z,932.8
2019-05-05T09:35:46.930Z,932.8
2019-05-05T09:36:47.904Z,932.8
2019-05-05T09:37:48.624Z,932.8
2019-05-05T09:38:49.388Z,932.8
2019-05-05T09:39:50.171Z,932.8
2019-05-05T09:41:56.318Z,932.7
2019-05-05T09:42:57.070Z,932.8
2019-05-05T09:43:57.846Z,932.8
2019-05-05T09:44:58.628Z,932.9
2019-05-05T09:45:59.396Z,932.8
2019-05-05T09:47:00.164Z,932.9
2019-05-05T09:48:00.933Z,932.9
2019-05-05T09:49:01.689Z,932.8
2019-05-05T09:50:04.672Z,932.7
2019-05-05T09:52:06.976Z,932.9
2019-05-05T09:53:07.743Z,932.8
2019-05-05T09:54:18.248Z,932.9
2019-05-05T09:55:19.216Z,932.8
2019-05-05T09:56:19.950Z,932.9
2019-05-05T09:57:20.724Z,932.8
2019-05-05T09:58:21.486Z,932.8
2019-05-05T09:59:24.485Z,932.9
2019-05-05T10:00:25.495Z,932.8
2019-05-05T10:02:29.796Z,932.9
2019-05-05T10:03:30.564Z,932.7
2019-05-05T10:04:31.326Z,932.9
2019-05-05T10:05:34.328Z,932.9
2019-05-05T10:06:35.054Z,932.9
2019-05-05T10:07:35.819Z,930.6
2019-05-05T10:08:36.586Z,932.9
2019-05-05T10:09:37.342Z,932.9
2019-05-05T10:10:38.136Z,932.9
2019-05-05T10:12:45.023Z,933
2019-05-05T10:13:45.788Z,932.8
2019-05-05T10:14:46.548Z,933
2019-05-05T10:15:47.352Z,932.9
2019-05-05T10:16:48.117Z,933
2019-05-05T10:17:48.878Z,932.8
2019-05-05T10:18:49.653Z,933
2019-05-05T10:19:50.435Z,933
2019-05-05T10:20:51.218Z,933
2019-05-05T10:22:56.154Z,933.1
2019-05-05T10:23:57.060Z,933
2019-05-05T10:24:59.489Z,933
2019-05-05T10:26:00.478Z,933
2019-05-05T10:27:02.016Z,933.1
2019-05-05T10:28:05.478Z,932.9
2019-05-05T10:29:06.495Z,933.1
2019-05-05T10:30:07.272Z,933.1
2019-05-05T10:31:08.068Z,933.1
2019-05-05T10:33:10.367Z,933.1
2019-05-05T10:34:11.133Z,933.1
2019-05-05T10:35:11.895Z,933.1
2019-05-05T10:36:14.636Z,933.1
2019-05-05T10:37:15.450Z,933.2
2019-05-05T10:38:16.201Z,933
2019-05-05T10:39:16.968Z,932.9
2019-05-05T10:40:17.733Z,933
2019-05-05T10:41:18.526Z,933
2019-05-05T10:43:27.594Z,933.1
2019-05-05T10:44:28.349Z,933
2019-05-05T10:45:28.850Z,933
2019-05-05T10:46:29.645Z,933
2019-05-05T10:47:30.407Z,933.1
2019-05-05T10:48:31.172Z,933.1
2019-05-05T10:49:34.164Z,932.4
2019-05-05T10:50:35.398Z,933
2019-05-05T10:51:36.185Z,933
2019-05-05T10:53:38.484Z,931.4
2019-05-05T10:54:45.902Z,933
2019-05-05T10:55:46.655Z,933
2019-05-05T10:56:47.436Z,932.3
2019-05-05T10:57:48.209Z,933
2019-05-05T10:58:48.974Z,932.9
2019-05-05T10:59:49.737Z,933
2019-05-05T11:00:50.504Z,930.8
2019-05-05T11:01:51.306Z,933.1
2019-05-05T11:03:00.221Z,933.1
2019-05-05T11:04:01.010Z,933
2019-05-05T11:05:04.200Z,932.9
2019-05-05T11:06:05.674Z,933.1
2019-05-05T11:07:06.503Z,933
2019-05-05T11:08:07.256Z,932.9
2019-05-05T11:09:08.045Z,933.1
2019-05-05T11:10:08.817Z,933.1
2019-05-05T11:11:09.594Z,933.1
2019-05-05T11:12:10.417Z,933.2
2019-05-05T11:14:15.940Z,933.2
2019-05-05T11:15:24.527Z,933.1
2019-05-05T11:16:25.478Z,933.2
2019-05-05T11:17:26.507Z,933
2019-05-05T11:18:27.283Z,933
2019-05-05T11:19:28.054Z,933.2
2019-05-05T11:20:28.831Z,933.1
2019-05-05T11:21:29.612Z,933.2
2019-05-05T11:22:30.408Z,933.2
2019-05-05T11:24:35.027Z,933.3
2019-05-05T11:25:35.795Z,933.2
2019-05-05T11:26:36.582Z,933.3
2019-05-05T11:27:37.395Z,933.2
2019-05-05T11:28:38.190Z,933.3
2019-05-05T11:29:38.980Z,933.3
2019-05-05T11:30:39.744Z,933.2
2019-05-05T11:31:40.511Z,933.3
2019-05-05T11:32:41.295Z,933.1
2019-05-05T11:34:45.822Z,933.3
2019-05-05T11:35:46.590Z,933.2
2019-05-05T11:36:47.391Z,933.1
2019-05-05T11:37:48.193Z,933.1
2019-05-05T11:38:48.961Z,933.2
2019-05-05T11:39:49.729Z,933.1
2019-05-05T11:40:50.495Z,933.2
2019-05-05T11:41:51.283Z,933.2
2019-05-05T11:42:54.267Z,933.1
2019-05-05T11:44:58.636Z,933.2
2019-05-05T11:45:59.411Z,933.2
2019-05-05T11:47:00.178Z,933.2
2019-05-05T11:48:00.967Z,933.2
2019-05-05T11:49:01.747Z,933.2
2019-05-05T11:50:05.064Z,933
2019-05-05T11:51:05.839Z,933.3
2019-05-05T11:52:06.609Z,933.1
2019-05-05T11:53:07.405Z,933.2
2019-05-05T11:55:15.949Z,933.1
2019-05-05T11:56:16.708Z,933.3
2019-05-05T11:57:17.470Z,933.3
2019-05-05T11:58:18.289Z,933.3
2019-05-05T11:59:19.028Z,933.3
2019-05-05T12:00:19.805Z,933.3
2019-05-05T12:01:20.563Z,933.3
2019-05-05T12:02:21.336Z,933.3
2019-05-05T12:03:22.128Z,933.3
2019-05-05T12:05:27.413Z,933.3
2019-05-05T12:06:28.187Z,933.3
2019-05-05T12:07:28.938Z,933.3
2019-05-05T12:08:29.735Z,933.3
2019-05-05T12:09:30.499Z,933.3
2019-05-05T12:10:31.271Z,933.3
2019-05-05T12:11:32.036Z,933.2
2019-05-05T12:12:34.737Z,933.4
2019-05-05T12:13:35.537Z,933.4
2019-05-05T12:15:40.053Z,931
2019-05-05T12:16:40.815Z,933.4
2019-05-05T12:17:41.581Z,933.3
2019-05-05T12:18:44.184Z,933.4
2019-05-05T12:19:48.867Z,933.3
2019-05-05T12:20:49.639Z,933.3
2019-05-05T12:21:50.413Z,933.4
2019-05-05T12:22:51.174Z,933.4
2019-05-05T12:23:51.957Z,933.5
2019-05-05T12:25:58.299Z,933.5
2019-05-05T12:26:59.087Z,933.5
2019-05-05T12:27:59.856Z,933.5
2019-05-05T12:29:00.360Z,933.5
2019-05-05T12:30:01.130Z,933.4
2019-05-05T12:31:03.957Z,933.5
2019-05-05T12:32:04.743Z,933.3
2019-05-05T12:33:05.970Z,933.5
2019-05-05T12:34:06.753Z,933.5
2019-05-05T12:36:11.053Z,933.5
2019-05-05T12:37:11.825Z,933.3
2019-05-05T12:38:12.599Z,933.4
2019-05-05T12:39:15.088Z,933.4
2019-05-05T12:40:15.861Z,933.3
2019-05-05T12:41:16.633Z,933.3
2019-05-05T12:42:17.389Z,933.3
2019-05-05T12:43:18.171Z,933.3
2019-05-05T12:44:18.956Z,932.6
2019-05-05T12:46:25.913Z,933.2
2019-05-05T12:47:26.688Z,933.4
2019-05-05T12:48:27.455Z,933.3
2019-05-05T12:49:28.255Z,933.4
2019-05-05T12:50:29.027Z,932.4
2019-05-05T12:51:29.790Z,933.4
2019-05-05T12:52:30.556Z,933.2
2019-05-05T12:53:31.357Z,933.4
2019-05-05T12:54:34.647Z,933.4
2019-05-05T12:56:45.891Z,933.4
2019-05-05T12:57:46.653Z,933.3
2019-05-05T12:58:47.417Z,933.4
2019-05-05T12:59:48.214Z,933.4
2019-05-05T13:00:48.973Z,933.4
2019-05-05T13:01:49.735Z,933.4
2019-05-05T13:02:50.508Z,932.7
2019-05-05T13:03:51.268Z,933.4
2019-05-05T13:04:54.251Z,933.4
2019-05-05T13:06:58.567Z,933.4
2019-05-05T13:07:59.337Z,933.2
2019-05-05T13:09:00.118Z,933.4
2019-05-05T13:10:00.917Z,933.3
2019-05-05T13:11:03.860Z,933.3
2019-05-05T13:12:05.635Z,933.3
2019-05-05T13:13:06.391Z,933.4
2019-05-05T13:14:07.167Z,933.3
2019-05-05T13:15:07.974Z,933.3
2019-05-05T13:17:14.669Z,933.3
2019-05-05T13:18:15.441Z,933.4
2019-05-05T13:19:16.223Z,933.3
2019-05-05T13:20:17.005Z,933.4
2019-05-05T13:21:17.784Z,933.4
2019-05-05T13:22:18.532Z,933.3
2019-05-05T13:23:19.302Z,933.2
2019-05-05T13:24:20.071Z,933.3
2019-05-05T13:25:20.883Z,933.3
2019-05-05T13:27:30.945Z,933.2
2019-05-05T13:28:31.723Z,933.2
2019-05-05T13:29:34.629Z,933.3
2019-05-05T13:30:35.515Z,933.2
2019-05-05T13:31:36.299Z,933.3
2019-05-05T13:32:37.054Z,933.4
2019-05-05T13:33:38.438Z,933.4
2019-05-05T13:34:39.205Z,933.4
2019-05-05T13:35:39.983Z,933.5
2019-05-05T13:37:44.649Z,933.5
2019-05-05T13:38:45.439Z,933.4
2019-05-05T13:39:46.203Z,933.4
2019-05-05T13:40:46.991Z,933.5
2019-05-05T13:41:47.748Z,933.5
2019-05-05T13:42:48.519Z,933.5
2019-05-05T13:43:49.273Z,933.5
2019-05-05T13:44:50.042Z,933.5
2019-05-05T13:45:50.837Z,933.5
2019-05-05T13:47:56.297Z,933.5
2019-05-05T13:48:57.064Z,933.5
2019-05-05T13:49:57.853Z,933.6
2019-05-05T13:50:58.633Z,933.5
2019-05-05T13:51:59.397Z,933.5
2019-05-05T13:53:00.157Z,933.5
2019-05-05T13:54:00.925Z,933.6
2019-05-05T13:55:01.895Z,933.4
2019-05-05T13:56:15.977Z,933.6
2019-05-05T13:58:18.298Z,933.4
2019-05-05T13:59:19.065Z,933.6
2019-05-05T14:00:19.832Z,933.6
2019-05-05T14:01:20.617Z,933.6
2019-05-05T14:02:21.379Z,933.5
2019-05-05T14:03:24.338Z,933.6
2019-05-05T14:04:25.093Z,933.4
2019-05-05T14:05:25.866Z,933.6
2019-05-05T14:06:26.653Z,933.4
2019-05-05T14:08:36.798Z,933.3
2019-05-05T14:09:37.555Z,933.5
2019-05-05T14:10:38.347Z,933.5
2019-05-05T14:11:39.129Z,933.6
2019-05-05T14:12:39.905Z,933.4
2019-05-05T14:13:40.669Z,933.6
2019-05-05T14:14:41.431Z,933.5
2019-05-05T14:15:44.201Z,933.6
2019-05-05T14:16:45.802Z,933.6
2019-05-05T14:18:50.117Z,933.6
2019-05-05T14:20:15.061Z,933.4
2019-05-05T14:21:15.835Z,933.5
2019-05-05T14:22:16.628Z,933.6
2019-05-05T14:23:17.398Z,933.5
2019-05-05T14:24:18.158Z,933.3
2019-05-05T14:25:18.921Z,933.5
2019-05-05T14:26:35.642Z,933.5
2019-05-05T14:27:36.426Z,933.4
2019-05-05T14:29:40.727Z,933.4
2019-05-05T14:30:43.479Z,933.5
2019-05-05T14:31:45.529Z,933.5
2019-05-05T14:32:46.319Z,933.5
2019-05-05T14:33:47.091Z,933.5
2019-05-05T14:34:48.514Z,933.5
2019-05-05T14:35:49.287Z,933.4
2019-05-05T14:36:50.053Z,933.5
2019-05-05T14:37:50.831Z,932.9
2019-05-05T14:39:57.234Z,933.5
2019-05-05T14:40:57.997Z,933.5
2019-05-05T14:41:58.769Z,933.5
2019-05-05T14:42:59.545Z,933.3
2019-05-05T14:44:00.317Z,933.5
2019-05-05T14:45:01.090Z,933.6
2019-05-05T14:46:04.173Z,933.5
2019-05-05T14:47:04.936Z,933.5